sensor_id;sensor_type;location;lat;lon;timestamp;P1;durP1;ratioP1;P2;durP2;ratioP2
11111;SDS011;5609;49.466;8.468;2022-08-19T00:01:59;19.13;;;17.43;;
11111;SDS011;5609;49.466;8.468;2022-08-19T00:04:28;19.33;;;17.63;;
11111;SDS011;5609;49.466;8.468;2022-08-19T00:06:57;19.53;;;17.73;;
11111;SDS011;5609;49.466;8.468;2022-08-19T00:09:25;19.50;;;17.90;;
11111;SDS011;5609;49.466;8.468;2022-08-19T00:11:53;19.27;;;17.57;;
11111;SDS011;5609;49.466;8.468;2022-08-19T00:14:23;19.20;;;17.50;;
11111;SDS011;5609;49.466;8.468;2022-08-19T00:16:53;18.77;;;17.07;;
11111;SDS011;5609;49.466;8.468;2022-08-19T00:19:20;19.20;;;17.50;;
11111;SDS011;5609;49.466;8.468;2022-08-19T00:21:48;19.43;;;17.60;;
11111;SDS011;5609;49.466;8.468;2022-08-19T00:24:15;18.73;;;17.13;;
11111;SDS011;5609;49.466;8.468;2022-08-19T00:26:42;18.97;;;17.27;;
11111;SDS011;5609;49.466;8.468;2022-08-19T00:29:11;18.93;;;17.23;;
11111;SDS011;5609;49.466;8.468;2022-08-19T00:31:39;18.70;;;17.00;;
11111;SDS011;5609;49.466;8.468;2022-08-19T00:34:08;19.87;;;18.17;;
11111;SDS011;5609;49.466;8.468;2022-08-19T00:36:36;20.00;;;18.30;;
11111;SDS011;5609;49.466;8.468;2022-08-19T00:39:03;19.83;;;18.10;;
11111;SDS011;5609;49.466;8.468;2022-08-19T00:41:30;19.80;;;18.00;;
11111;SDS011;5609;49.466;8.468;2022-08-19T00:43:58;20.20;;;18.40;;
11111;SDS011;5609;49.466;8.468;2022-08-19T00:46:27;20.13;;;18.27;;
11111;SDS011;5609;49.466;8.468;2022-08-19T00:48:55;19.50;;;17.80;;
11111;SDS011;5609;49.466;8.468;2022-08-19T00:51:24;20.00;;;17.97;;
11111;SDS011;5609;49.466;8.468;2022-08-19T00:53:54;18.37;;;16.77;;
11111;SDS011;5609;49.466;8.468;2022-08-19T00:56:22;18.43;;;16.80;;
11111;SDS011;5609;49.466;8.468;2022-08-19T00:58:51;19.53;;;17.63;;
11111;SDS011;5609;49.466;8.468;2022-08-19T01:01:18;19.07;;;17.37;;
11111;SDS011;5609;49.466;8.468;2022-08-19T01:03:45;19.20;;;17.50;;
11111;SDS011;5609;49.466;8.468;2022-08-19T01:06:12;18.90;;;17.30;;
11111;SDS011;5609;49.466;8.468;2022-08-19T01:08:40;19.20;;;17.40;;
11111;SDS011;5609;49.466;8.468;2022-08-19T01:11:07;19.17;;;17.20;;
11111;SDS011;5609;49.466;8.468;2022-08-19T01:13:34;18.83;;;17.13;;
11111;SDS011;5609;49.466;8.468;2022-08-19T01:16:03;18.53;;;16.83;;
11111;SDS011;5609;49.466;8.468;2022-08-19T01:18:35;19.73;;;18.03;;
11111;SDS011;5609;49.466;8.468;2022-08-19T01:21:08;19.57;;;17.83;;
11111;SDS011;5609;49.466;8.468;2022-08-19T01:23:42;19.30;;;17.70;;
11111;SDS011;5609;49.466;8.468;2022-08-19T01:26:10;20.00;;;18.27;;
11111;SDS011;5609;49.466;8.468;2022-08-19T01:28:40;19.90;;;18.00;;
11111;SDS011;5609;49.466;8.468;2022-08-19T01:31:08;20.30;;;18.50;;
11111;SDS011;5609;49.466;8.468;2022-08-19T01:33:37;21.23;;;19.23;;
11111;SDS011;5609;49.466;8.468;2022-08-19T01:36:05;20.07;;;18.27;;
11111;SDS011;5609;49.466;8.468;2022-08-19T01:38:34;20.63;;;18.77;;
11111;SDS011;5609;49.466;8.468;2022-08-19T01:41:04;21.10;;;19.07;;
11111;SDS011;5609;49.466;8.468;2022-08-19T01:43:31;20.80;;;19.00;;
11111;SDS011;5609;49.466;8.468;2022-08-19T01:45:58;20.67;;;18.77;;
11111;SDS011;5609;49.466;8.468;2022-08-19T01:48:25;21.90;;;19.90;;
11111;SDS011;5609;49.466;8.468;2022-08-19T01:50:54;21.37;;;19.20;;
11111;SDS011;5609;49.466;8.468;2022-08-19T01:53:21;21.83;;;19.73;;
11111;SDS011;5609;49.466;8.468;2022-08-19T01:55:47;20.97;;;19.07;;
11111;SDS011;5609;49.466;8.468;2022-08-19T01:58:17;21.37;;;19.27;;
11111;SDS011;5609;49.466;8.468;2022-08-19T02:00:46;21.00;;;19.07;;
11111;SDS011;5609;49.466;8.468;2022-08-19T02:03:14;20.63;;;18.70;;
11111;SDS011;5609;49.466;8.468;2022-08-19T02:05:41;21.40;;;19.50;;
11111;SDS011;5609;49.466;8.468;2022-08-19T02:08:09;21.97;;;20.03;;
11111;SDS011;5609;49.466;8.468;2022-08-19T02:10:38;22.10;;;20.03;;
11111;SDS011;5609;49.466;8.468;2022-08-19T02:13:06;22.10;;;20.03;;
11111;SDS011;5609;49.466;8.468;2022-08-19T02:15:34;20.83;;;19.03;;
11111;SDS011;5609;49.466;8.468;2022-08-19T02:18:01;21.23;;;19.37;;
11111;SDS011;5609;49.466;8.468;2022-08-19T02:20:28;21.67;;;19.70;;
11111;SDS011;5609;49.466;8.468;2022-08-19T02:22:55;21.63;;;19.63;;
11111;SDS011;5609;49.466;8.468;2022-08-19T02:25:21;21.60;;;19.70;;
11111;SDS011;5609;49.466;8.468;2022-08-19T02:27:48;22.90;;;20.80;;
11111;SDS011;5609;49.466;8.468;2022-08-19T02:30:16;22.17;;;20.27;;
11111;SDS011;5609;49.466;8.468;2022-08-19T02:32:45;23.63;;;21.53;;
11111;SDS011;5609;49.466;8.468;2022-08-19T02:35:12;23.10;;;20.90;;
11111;SDS011;5609;49.466;8.468;2022-08-19T02:37:39;22.77;;;20.57;;
11111;SDS011;5609;49.466;8.468;2022-08-19T02:40:24;23.27;;;21.23;;
11111;SDS011;5609;49.466;8.468;2022-08-19T02:42:52;21.67;;;19.70;;
11111;SDS011;5609;49.466;8.468;2022-08-19T02:45:19;21.97;;;20.07;;
11111;SDS011;5609;49.466;8.468;2022-08-19T02:47:47;22.60;;;20.50;;
11111;SDS011;5609;49.466;8.468;2022-08-19T02:50:14;22.13;;;20.07;;
11111;SDS011;5609;49.466;8.468;2022-08-19T02:52:41;21.67;;;19.67;;
11111;SDS011;5609;49.466;8.468;2022-08-19T02:55:08;23.10;;;21.10;;
11111;SDS011;5609;49.466;8.468;2022-08-19T02:57:35;22.40;;;20.40;;
11111;SDS011;5609;49.466;8.468;2022-08-19T03:00:03;23.80;;;21.70;;
11111;SDS011;5609;49.466;8.468;2022-08-19T03:02:31;23.27;;;21.00;;
11111;SDS011;5609;49.466;8.468;2022-08-19T03:05:00;24.07;;;21.97;;
11111;SDS011;5609;49.466;8.468;2022-08-19T03:07:28;24.90;;;22.50;;
11111;SDS011;5609;49.466;8.468;2022-08-19T03:09:55;23.10;;;21.00;;
11111;SDS011;5609;49.466;8.468;2022-08-19T03:12:22;22.77;;;20.77;;
11111;SDS011;5609;49.466;8.468;2022-08-19T03:14:49;23.33;;;21.23;;
11111;SDS011;5609;49.466;8.468;2022-08-19T03:17:16;23.43;;;21.23;;
11111;SDS011;5609;49.466;8.468;2022-08-19T03:19:43;22.80;;;20.50;;
11111;SDS011;5609;49.466;8.468;2022-08-19T03:22:11;23.27;;;21.13;;
11111;SDS011;5609;49.466;8.468;2022-08-19T03:24:39;21.97;;;20.07;;
11111;SDS011;5609;49.466;8.468;2022-08-19T03:27:05;22.30;;;20.20;;
11111;SDS011;5609;49.466;8.468;2022-08-19T03:29:32;21.93;;;20.03;;
11111;SDS011;5609;49.466;8.468;2022-08-19T03:32:03;21.87;;;19.97;;
11111;SDS011;5609;49.466;8.468;2022-08-19T03:34:31;22.23;;;20.33;;
11111;SDS011;5609;49.466;8.468;2022-08-19T03:37:04;21.97;;;19.97;;
11111;SDS011;5609;49.466;8.468;2022-08-19T03:39:35;22.10;;;20.10;;
11111;SDS011;5609;49.466;8.468;2022-08-19T03:42:03;21.63;;;19.77;;
11111;SDS011;5609;49.466;8.468;2022-08-19T03:44:30;22.33;;;20.20;;
11111;SDS011;5609;49.466;8.468;2022-08-19T03:46:58;21.07;;;19.27;;
11111;SDS011;5609;49.466;8.468;2022-08-19T03:49:27;22.17;;;20.17;;
11111;SDS011;5609;49.466;8.468;2022-08-19T03:51:57;22.70;;;20.70;;
11111;SDS011;5609;49.466;8.468;2022-08-19T03:54:26;21.83;;;19.80;;
11111;SDS011;5609;49.466;8.468;2022-08-19T03:56:55;21.63;;;19.77;;
11111;SDS011;5609;49.466;8.468;2022-08-19T03:59:25;21.90;;;20.00;;
11111;SDS011;5609;49.466;8.468;2022-08-19T04:01:54;20.97;;;19.07;;
11111;SDS011;5609;49.466;8.468;2022-08-19T04:04:22;20.97;;;19.17;;
11111;SDS011;5609;49.466;8.468;2022-08-19T04:06:49;21.33;;;19.43;;
11111;SDS011;5609;49.466;8.468;2022-08-19T04:09:17;21.40;;;19.60;;
11111;SDS011;5609;49.466;8.468;2022-08-19T04:11:47;20.67;;;18.83;;
11111;SDS011;5609;49.466;8.468;2022-08-19T04:14:21;20.63;;;18.83;;
11111;SDS011;5609;49.466;8.468;2022-08-19T04:16:50;20.40;;;18.60;;
11111;SDS011;5609;49.466;8.468;2022-08-19T04:19:17;20.40;;;18.50;;
11111;SDS011;5609;49.466;8.468;2022-08-19T04:21:46;20.87;;;18.97;;
11111;SDS011;5609;49.466;8.468;2022-08-19T04:24:15;20.20;;;18.40;;
11111;SDS011;5609;49.466;8.468;2022-08-19T04:26:42;21.20;;;19.17;;
11111;SDS011;5609;49.466;8.468;2022-08-19T04:29:12;20.57;;;18.77;;
11111;SDS011;5609;49.466;8.468;2022-08-19T04:31:41;19.73;;;17.87;;
11111;SDS011;5609;49.466;8.468;2022-08-19T04:34:10;20.43;;;18.63;;
11111;SDS011;5609;49.466;8.468;2022-08-19T04:36:39;20.43;;;18.73;;
11111;SDS011;5609;49.466;8.468;2022-08-19T04:39:10;19.43;;;17.70;;
11111;SDS011;5609;49.466;8.468;2022-08-19T04:41:39;19.83;;;18.03;;
11111;SDS011;5609;49.466;8.468;2022-08-19T04:44:24;19.13;;;17.40;;
11111;SDS011;5609;49.466;8.468;2022-08-19T04:46:53;19.53;;;17.73;;
11111;SDS011;5609;49.466;8.468;2022-08-19T04:49:21;19.37;;;17.60;;
11111;SDS011;5609;49.466;8.468;2022-08-19T04:51:49;18.93;;;17.30;;
11111;SDS011;5609;49.466;8.468;2022-08-19T04:54:20;19.17;;;17.53;;
11111;SDS011;5609;49.466;8.468;2022-08-19T04:56:48;19.13;;;17.43;;
11111;SDS011;5609;49.466;8.468;2022-08-19T04:59:16;18.27;;;16.67;;
11111;SDS011;5609;49.466;8.468;2022-08-19T05:01:45;18.93;;;17.27;;
11111;SDS011;5609;49.466;8.468;2022-08-19T05:04:16;18.17;;;16.57;;
11111;SDS011;5609;49.466;8.468;2022-08-19T05:06:45;18.10;;;16.40;;
11111;SDS011;5609;49.466;8.468;2022-08-19T05:09:12;18.33;;;16.70;;
11111;SDS011;5609;49.466;8.468;2022-08-19T05:11:40;18.70;;;17.10;;
11111;SDS011;5609;49.466;8.468;2022-08-19T05:14:08;19.47;;;17.53;;
11111;SDS011;5609;49.466;8.468;2022-08-19T05:16:37;19.43;;;17.37;;
11111;SDS011;5609;49.466;8.468;2022-08-19T05:19:04;18.57;;;16.77;;
11111;SDS011;5609;49.466;8.468;2022-08-19T05:21:50;17.23;;;15.53;;
11111;SDS011;5609;49.466;8.468;2022-08-19T05:24:34;17.87;;;16.33;;
11111;SDS011;5609;49.466;8.468;2022-08-19T05:27:02;18.10;;;16.50;;
11111;SDS011;5609;49.466;8.468;2022-08-19T05:29:30;17.60;;;15.90;;
11111;SDS011;5609;49.466;8.468;2022-08-19T05:31:59;16.50;;;15.00;;
11111;SDS011;5609;49.466;8.468;2022-08-19T05:34:27;16.50;;;15.10;;
11111;SDS011;5609;49.466;8.468;2022-08-19T05:36:56;16.20;;;14.57;;
11111;SDS011;5609;49.466;8.468;2022-08-19T05:39:24;17.43;;;15.80;;
11111;SDS011;5609;49.466;8.468;2022-08-19T05:41:54;16.30;;;14.80;;
11111;SDS011;5609;49.466;8.468;2022-08-19T05:44:23;16.73;;;15.30;;
11111;SDS011;5609;49.466;8.468;2022-08-19T05:46:51;16.80;;;15.23;;
11111;SDS011;5609;49.466;8.468;2022-08-19T05:49:19;16.50;;;14.90;;
11111;SDS011;5609;49.466;8.468;2022-08-19T05:51:47;16.43;;;14.93;;
11111;SDS011;5609;49.466;8.468;2022-08-19T05:54:15;17.03;;;15.43;;
11111;SDS011;5609;49.466;8.468;2022-08-19T05:56:42;15.97;;;14.37;;
11111;SDS011;5609;49.466;8.468;2022-08-19T05:59:13;18.40;;;16.70;;
11111;SDS011;5609;49.466;8.468;2022-08-19T06:01:42;17.50;;;15.77;;
11111;SDS011;5609;49.466;8.468;2022-08-19T06:04:10;17.37;;;15.70;;
11111;SDS011;5609;49.466;8.468;2022-08-19T06:06:39;17.20;;;15.60;;
11111;SDS011;5609;49.466;8.468;2022-08-19T06:09:07;17.20;;;15.70;;
11111;SDS011;5609;49.466;8.468;2022-08-19T06:11:37;16.77;;;15.17;;
11111;SDS011;5609;49.466;8.468;2022-08-19T06:14:06;16.53;;;14.83;;
11111;SDS011;5609;49.466;8.468;2022-08-19T06:16:35;16.50;;;15.10;;
11111;SDS011;5609;49.466;8.468;2022-08-19T06:19:04;16.80;;;15.30;;
11111;SDS011;5609;49.466;8.468;2022-08-19T06:21:33;16.10;;;14.50;;
11111;SDS011;5609;49.466;8.468;2022-08-19T06:24:02;17.00;;;15.30;;
11111;SDS011;5609;49.466;8.468;2022-08-19T06:26:30;16.70;;;15.10;;
11111;SDS011;5609;49.466;8.468;2022-08-19T06:28:58;16.00;;;14.20;;
11111;SDS011;5609;49.466;8.468;2022-08-19T06:31:25;15.40;;;14.00;;
11111;SDS011;5609;49.466;8.468;2022-08-19T06:33:59;15.73;;;14.37;;
11111;SDS011;5609;49.466;8.468;2022-08-19T06:36:28;14.80;;;13.40;;
11111;SDS011;5609;49.466;8.468;2022-08-19T06:38:59;15.63;;;14.13;;
11111;SDS011;5609;49.466;8.468;2022-08-19T06:41:26;14.87;;;13.47;;
11111;SDS011;5609;49.466;8.468;2022-08-19T06:43:54;14.70;;;13.30;;
11111;SDS011;5609;49.466;8.468;2022-08-19T06:46:23;13.67;;;12.53;;
11111;SDS011;5609;49.466;8.468;2022-08-19T06:48:50;14.67;;;13.27;;
11111;SDS011;5609;49.466;8.468;2022-08-19T06:51:19;14.33;;;12.93;;
11111;SDS011;5609;49.466;8.468;2022-08-19T06:53:47;13.77;;;12.57;;
11111;SDS011;5609;49.466;8.468;2022-08-19T06:56:15;14.03;;;12.73;;
11111;SDS011;5609;49.466;8.468;2022-08-19T06:58:44;14.37;;;13.00;;
11111;SDS011;5609;49.466;8.468;2022-08-19T07:01:12;14.10;;;12.60;;
11111;SDS011;5609;49.466;8.468;2022-08-19T07:03:40;14.50;;;13.20;;
11111;SDS011;5609;49.466;8.468;2022-08-19T07:06:08;14.13;;;12.90;;
11111;SDS011;5609;49.466;8.468;2022-08-19T07:08:37;13.00;;;11.90;;
11111;SDS011;5609;49.466;8.468;2022-08-19T07:11:05;13.47;;;12.37;;
11111;SDS011;5609;49.466;8.468;2022-08-19T07:13:33;14.07;;;12.67;;
11111;SDS011;5609;49.466;8.468;2022-08-19T07:16:02;13.43;;;12.23;;
11111;SDS011;5609;49.466;8.468;2022-08-19T07:18:30;12.90;;;11.53;;
11111;SDS011;5609;49.466;8.468;2022-08-19T07:21:03;13.50;;;12.20;;
11111;SDS011;5609;49.466;8.468;2022-08-19T07:23:31;12.77;;;11.63;;
11111;SDS011;5609;49.466;8.468;2022-08-19T07:25:58;11.60;;;10.70;;
11111;SDS011;5609;49.466;8.468;2022-08-19T07:28:30;12.00;;;10.80;;
11111;SDS011;5609;49.466;8.468;2022-08-19T07:30:56;12.87;;;11.30;;
11111;SDS011;5609;49.466;8.468;2022-08-19T07:33:23;11.97;;;10.87;;
11111;SDS011;5609;49.466;8.468;2022-08-19T07:35:51;12.33;;;11.13;;
11111;SDS011;5609;49.466;8.468;2022-08-19T07:38:20;11.90;;;10.77;;
11111;SDS011;5609;49.466;8.468;2022-08-19T07:40:47;11.50;;;10.40;;
11111;SDS011;5609;49.466;8.468;2022-08-19T07:43:16;14.37;;;10.10;;
11111;SDS011;5609;49.466;8.468;2022-08-19T07:45:50;11.70;;;10.40;;
11111;SDS011;5609;49.466;8.468;2022-08-19T07:48:17;11.80;;;10.80;;
11111;SDS011;5609;49.466;8.468;2022-08-19T07:50:44;12.73;;;10.57;;
11111;SDS011;5609;49.466;8.468;2022-08-19T07:53:13;11.33;;;10.20;;
11111;SDS011;5609;49.466;8.468;2022-08-19T07:55:41;12.33;;;11.23;;
11111;SDS011;5609;49.466;8.468;2022-08-19T07:58:08;11.00;;;10.00;;
11111;SDS011;5609;49.466;8.468;2022-08-19T08:00:35;10.57;;;9.60;;
11111;SDS011;5609;49.466;8.468;2022-08-19T08:03:03;11.27;;;10.10;;
11111;SDS011;5609;49.466;8.468;2022-08-19T08:05:29;11.90;;;9.33;;
11111;SDS011;5609;49.466;8.468;2022-08-19T08:08:14;9.30;;;8.40;;
11111;SDS011;5609;49.466;8.468;2022-08-19T08:10:59;9.30;;;8.50;;
11111;SDS011;5609;49.466;8.468;2022-08-19T08:13:26;9.60;;;8.70;;
11111;SDS011;5609;49.466;8.468;2022-08-19T08:15:53;9.77;;;8.80;;
11111;SDS011;5609;49.466;8.468;2022-08-19T08:18:20;10.10;;;9.10;;
11111;SDS011;5609;49.466;8.468;2022-08-19T08:20:47;9.33;;;8.43;;
11111;SDS011;5609;49.466;8.468;2022-08-19T08:23:14;8.40;;;7.60;;
11111;SDS011;5609;49.466;8.468;2022-08-19T08:25:50;8.33;;;7.50;;
11111;SDS011;5609;49.466;8.468;2022-08-19T08:28:21;9.90;;;9.00;;
11111;SDS011;5609;49.466;8.468;2022-08-19T08:30:49;9.17;;;8.37;;
11111;SDS011;5609;49.466;8.468;2022-08-19T08:33:17;8.40;;;7.70;;
11111;SDS011;5609;49.466;8.468;2022-08-19T08:35:46;9.10;;;8.20;;
11111;SDS011;5609;49.466;8.468;2022-08-19T08:38:13;8.77;;;8.00;;
11111;SDS011;5609;49.466;8.468;2022-08-19T08:40:43;10.87;;;7.43;;
11111;SDS011;5609;49.466;8.468;2022-08-19T08:43:21;8.47;;;7.60;;
11111;SDS011;5609;49.466;8.468;2022-08-19T08:45:55;10.07;;;7.73;;
11111;SDS011;5609;49.466;8.468;2022-08-19T08:51:10;9.87;;;7.43;;
11111;SDS011;5609;49.466;8.468;2022-08-19T08:53:39;7.90;;;7.03;;
11111;SDS011;5609;49.466;8.468;2022-08-19T08:56:08;8.50;;;7.70;;
11111;SDS011;5609;49.466;8.468;2022-08-19T08:58:41;8.27;;;7.53;;
11111;SDS011;5609;49.466;8.468;2022-08-19T09:01:10;8.07;;;7.17;;
11111;SDS011;5609;49.466;8.468;2022-08-19T09:03:39;8.27;;;7.57;;
11111;SDS011;5609;49.466;8.468;2022-08-19T09:06:10;8.00;;;7.20;;
11111;SDS011;5609;49.466;8.468;2022-08-19T09:08:44;9.23;;;8.07;;
11111;SDS011;5609;49.466;8.468;2022-08-19T09:11:17;8.67;;;7.77;;
11111;SDS011;5609;49.466;8.468;2022-08-19T09:13:51;8.63;;;7.93;;
11111;SDS011;5609;49.466;8.468;2022-08-19T09:16:28;9.60;;;8.53;;
11111;SDS011;5609;49.466;8.468;2022-08-19T09:18:57;9.10;;;7.80;;
11111;SDS011;5609;49.466;8.468;2022-08-19T09:21:30;9.70;;;7.93;;
11111;SDS011;5609;49.466;8.468;2022-08-19T09:23:57;7.70;;;7.00;;
11111;SDS011;5609;49.466;8.468;2022-08-19T09:26:24;7.47;;;6.77;;
11111;SDS011;5609;49.466;8.468;2022-08-19T09:28:53;8.87;;;8.07;;
11111;SDS011;5609;49.466;8.468;2022-08-19T09:31:21;8.33;;;7.53;;
11111;SDS011;5609;49.466;8.468;2022-08-19T09:33:51;10.07;;;9.23;;
11111;SDS011;5609;49.466;8.468;2022-08-19T09:36:22;8.83;;;8.03;;
11111;SDS011;5609;49.466;8.468;2022-08-19T09:38:51;9.20;;;8.40;;
11111;SDS011;5609;49.466;8.468;2022-08-19T09:41:19;10.47;;;9.47;;
11111;SDS011;5609;49.466;8.468;2022-08-19T09:43:48;9.30;;;8.50;;
11111;SDS011;5609;49.466;8.468;2022-08-19T09:46:20;8.77;;;8.07;;
11111;SDS011;5609;49.466;8.468;2022-08-19T09:48:47;8.57;;;7.67;;
11111;SDS011;5609;49.466;8.468;2022-08-19T09:51:16;9.50;;;8.60;;
11111;SDS011;5609;49.466;8.468;2022-08-19T09:53:45;9.20;;;8.40;;
11111;SDS011;5609;49.466;8.468;2022-08-19T09:56:15;10.17;;;7.27;;
11111;SDS011;5609;49.466;8.468;2022-08-19T09:58:43;8.20;;;7.40;;
11111;SDS011;5609;49.466;8.468;2022-08-19T10:01:15;7.90;;;7.20;;
11111;SDS011;5609;49.466;8.468;2022-08-19T10:03:46;8.73;;;7.93;;
11111;SDS011;5609;49.466;8.468;2022-08-19T10:06:14;8.33;;;7.60;;
11111;SDS011;5609;49.466;8.468;2022-08-19T10:08:41;7.40;;;6.80;;
11111;SDS011;5609;49.466;8.468;2022-08-19T10:11:09;8.30;;;7.57;;
11111;SDS011;5609;49.466;8.468;2022-08-19T10:13:36;8.40;;;7.60;;
11111;SDS011;5609;49.466;8.468;2022-08-19T10:16:04;7.90;;;7.20;;
11111;SDS011;5609;49.466;8.468;2022-08-19T10:18:33;8.10;;;7.30;;
11111;SDS011;5609;49.466;8.468;2022-08-19T10:21:06;7.10;;;6.50;;
11111;SDS011;5609;49.466;8.468;2022-08-19T10:23:36;7.30;;;6.70;;
11111;SDS011;5609;49.466;8.468;2022-08-19T10:26:04;7.83;;;6.57;;
11111;SDS011;5609;49.466;8.468;2022-08-19T10:28:32;7.10;;;6.50;;
11111;SDS011;5609;49.466;8.468;2022-08-19T10:31:05;7.53;;;6.93;;
11111;SDS011;5609;49.466;8.468;2022-08-19T10:33:33;7.00;;;6.40;;
11111;SDS011;5609;49.466;8.468;2022-08-19T10:36:01;7.03;;;6.17;;
11111;SDS011;5609;49.466;8.468;2022-08-19T10:38:30;9.70;;;8.13;;
11111;SDS011;5609;49.466;8.468;2022-08-19T10:41:05;9.13;;;8.23;;
11111;SDS011;5609;49.466;8.468;2022-08-19T10:43:33;8.10;;;7.40;;
11111;SDS011;5609;49.466;8.468;2022-08-19T10:46:02;9.17;;;8.30;;
11111;SDS011;5609;49.466;8.468;2022-08-19T10:48:30;9.33;;;8.60;;
11111;SDS011;5609;49.466;8.468;2022-08-19T10:50:57;9.40;;;8.60;;
11111;SDS011;5609;49.466;8.468;2022-08-19T10:53:43;9.07;;;8.37;;
11111;SDS011;5609;49.466;8.468;2022-08-19T10:56:10;8.83;;;8.13;;
11111;SDS011;5609;49.466;8.468;2022-08-19T10:58:54;9.83;;;9.03;;
11111;SDS011;5609;49.466;8.468;2022-08-19T11:01:22;9.10;;;8.37;;
11111;SDS011;5609;49.466;8.468;2022-08-19T11:03:49;9.30;;;8.30;;
11111;SDS011;5609;49.466;8.468;2022-08-19T11:06:17;8.93;;;8.00;;
11111;SDS011;5609;49.466;8.468;2022-08-19T11:08:46;8.90;;;8.10;;
11111;SDS011;5609;49.466;8.468;2022-08-19T11:11:13;8.90;;;8.20;;
11111;SDS011;5609;49.466;8.468;2022-08-19T11:13:40;8.27;;;7.57;;
11111;SDS011;5609;49.466;8.468;2022-08-19T11:16:08;8.67;;;7.90;;
11111;SDS011;5609;49.466;8.468;2022-08-19T11:18:39;8.93;;;8.13;;
11111;SDS011;5609;49.466;8.468;2022-08-19T11:21:09;8.50;;;7.90;;
11111;SDS011;5609;49.466;8.468;2022-08-19T11:23:38;8.63;;;7.90;;
11111;SDS011;5609;49.466;8.468;2022-08-19T11:26:06;7.83;;;7.03;;
11111;SDS011;5609;49.466;8.468;2022-08-19T11:28:33;8.03;;;6.43;;
11111;SDS011;5609;49.466;8.468;2022-08-19T11:31:00;6.60;;;6.10;;
11111;SDS011;5609;49.466;8.468;2022-08-19T11:33:28;6.30;;;5.80;;
11111;SDS011;5609;49.466;8.468;2022-08-19T11:35:56;6.70;;;6.10;;
11111;SDS011;5609;49.466;8.468;2022-08-19T11:38:23;5.90;;;5.40;;
11111;SDS011;5609;49.466;8.468;2022-08-19T11:40:54;6.60;;;6.10;;
11111;SDS011;5609;49.466;8.468;2022-08-19T11:43:23;6.63;;;6.13;;
11111;SDS011;5609;49.466;8.468;2022-08-19T11:45:51;7.80;;;7.20;;
11111;SDS011;5609;49.466;8.468;2022-08-19T11:48:19;6.70;;;6.10;;
11111;SDS011;5609;49.466;8.468;2022-08-19T11:50:46;6.53;;;5.90;;
11111;SDS011;5609;49.466;8.468;2022-08-19T11:53:14;6.20;;;5.60;;
11111;SDS011;5609;49.466;8.468;2022-08-19T11:55:41;6.40;;;5.80;;
11111;SDS011;5609;49.466;8.468;2022-08-19T11:58:09;5.90;;;5.50;;
11111;SDS011;5609;49.466;8.468;2022-08-19T12:00:39;6.37;;;5.87;;
11111;SDS011;5609;49.466;8.468;2022-08-19T12:03:06;5.60;;;5.20;;
11111;SDS011;5609;49.466;8.468;2022-08-19T12:05:33;5.03;;;4.73;;
11111;SDS011;5609;49.466;8.468;2022-08-19T12:08:02;5.40;;;4.90;;
11111;SDS011;5609;49.466;8.468;2022-08-19T12:10:29;5.67;;;5.17;;
11111;SDS011;5609;49.466;8.468;2022-08-19T12:12:57;5.07;;;4.77;;
11111;SDS011;5609;49.466;8.468;2022-08-19T12:15:24;6.20;;;4.90;;
11111;SDS011;5609;49.466;8.468;2022-08-19T12:17:54;4.80;;;4.50;;
11111;SDS011;5609;49.466;8.468;2022-08-19T12:20:21;4.90;;;4.50;;
11111;SDS011;5609;49.466;8.468;2022-08-19T12:22:49;4.93;;;4.53;;
11111;SDS011;5609;49.466;8.468;2022-08-19T12:25:16;4.97;;;4.43;;
11111;SDS011;5609;49.466;8.468;2022-08-19T12:27:43;5.10;;;4.60;;
11111;SDS011;5609;49.466;8.468;2022-08-19T12:30:11;5.03;;;4.63;;
11111;SDS011;5609;49.466;8.468;2022-08-19T12:32:39;5.07;;;4.57;;
11111;SDS011;5609;49.466;8.468;2022-08-19T12:35:08;4.10;;;3.80;;
11111;SDS011;5609;49.466;8.468;2022-08-19T12:37:36;4.90;;;4.50;;
11111;SDS011;5609;49.466;8.468;2022-08-19T12:40:07;4.40;;;4.10;;
11111;SDS011;5609;49.466;8.468;2022-08-19T12:42:36;4.47;;;4.07;;
11111;SDS011;5609;49.466;8.468;2022-08-19T12:45:07;5.63;;;4.20;;
11111;SDS011;5609;49.466;8.468;2022-08-19T12:47:35;4.70;;;4.40;;
11111;SDS011;5609;49.466;8.468;2022-08-19T12:50:03;4.43;;;4.13;;
11111;SDS011;5609;49.466;8.468;2022-08-19T12:52:35;5.97;;;5.47;;
11111;SDS011;5609;49.466;8.468;2022-08-19T12:55:03;4.93;;;4.53;;
11111;SDS011;5609;49.466;8.468;2022-08-19T12:57:32;4.23;;;3.83;;
11111;SDS011;5609;49.466;8.468;2022-08-19T13:00:01;4.23;;;3.87;;
11111;SDS011;5609;49.466;8.468;2022-08-19T13:02:31;3.73;;;3.40;;
11111;SDS011;5609;49.466;8.468;2022-08-19T13:04:59;4.03;;;3.73;;
11111;SDS011;5609;49.466;8.468;2022-08-19T13:07:27;4.00;;;3.70;;
11111;SDS011;5609;49.466;8.468;2022-08-19T13:09:57;4.60;;;4.20;;
11111;SDS011;5609;49.466;8.468;2022-08-19T13:12:24;4.63;;;3.67;;
11111;SDS011;5609;49.466;8.468;2022-08-19T13:14:51;4.55;;;4.07;;
11111;SDS011;5609;49.466;8.468;2022-08-19T13:17:19;4.00;;;3.75;;
11111;SDS011;5609;49.466;8.468;2022-08-19T13:19:46;4.03;;;3.67;;
11111;SDS011;5609;49.466;8.468;2022-08-19T13:22:13;4.25;;;3.85;;
11111;SDS011;5609;49.466;8.468;2022-08-19T13:24:40;4.88;;;4.45;;
11111;SDS011;5609;49.466;8.468;2022-08-19T13:27:09;4.80;;;4.30;;
11111;SDS011;5609;49.466;8.468;2022-08-19T13:29:36;5.10;;;4.60;;
11111;SDS011;5609;49.466;8.468;2022-08-19T13:32:20;5.13;;;4.63;;
11111;SDS011;5609;49.466;8.468;2022-08-19T13:35:05;4.63;;;4.23;;
11111;SDS011;5609;49.466;8.468;2022-08-19T13:37:32;4.73;;;4.33;;
11111;SDS011;5609;49.466;8.468;2022-08-19T13:40:09;4.90;;;4.50;;
11111;SDS011;5609;49.466;8.468;2022-08-19T13:42:41;4.63;;;4.10;;
11111;SDS011;5609;49.466;8.468;2022-08-19T13:45:10;4.70;;;4.20;;
11111;SDS011;5609;49.466;8.468;2022-08-19T13:47:38;5.70;;;5.20;;
11111;SDS011;5609;49.466;8.468;2022-08-19T13:50:09;4.32;;;4.00;;
11111;SDS011;5609;49.466;8.468;2022-08-19T13:52:36;4.32;;;3.95;;
11111;SDS011;5609;49.466;8.468;2022-08-19T13:55:04;5.50;;;4.10;;
11111;SDS011;5609;49.466;8.468;2022-08-19T13:57:32;4.20;;;3.80;;
11111;SDS011;5609;49.466;8.468;2022-08-19T14:00:02;3.92;;;3.63;;
11111;SDS011;5609;49.466;8.468;2022-08-19T14:02:31;3.92;;;3.55;;
11111;SDS011;5609;49.466;8.468;2022-08-19T14:04:58;3.40;;;3.20;;
11111;SDS011;5609;49.466;8.468;2022-08-19T14:07:25;4.00;;;3.63;;
11111;SDS011;5609;49.466;8.468;2022-08-19T14:09:52;3.72;;;3.40;;
11111;SDS011;5609;49.466;8.468;2022-08-19T14:12:19;3.80;;;3.50;;
11111;SDS011;5609;49.466;8.468;2022-08-19T14:14:48;3.80;;;3.50;;
11111;SDS011;5609;49.466;8.468;2022-08-19T14:17:16;3.53;;;3.33;;
11111;SDS011;5609;49.466;8.468;2022-08-19T14:19:43;4.25;;;3.70;;
11111;SDS011;5609;49.466;8.468;2022-08-19T14:22:10;3.60;;;3.22;;
11111;SDS011;5609;49.466;8.468;2022-08-19T14:24:37;4.35;;;3.47;;
11111;SDS011;5609;49.466;8.468;2022-08-19T14:27:05;3.25;;;2.95;;
11111;SDS011;5609;49.466;8.468;2022-08-19T14:29:32;3.50;;;3.20;;
11111;SDS011;5609;49.466;8.468;2022-08-19T14:31:59;3.30;;;2.80;;
11111;SDS011;5609;49.466;8.468;2022-08-19T14:34:27;3.50;;;3.17;;
11111;SDS011;5609;49.466;8.468;2022-08-19T14:36:56;3.40;;;3.10;;
11111;SDS011;5609;49.466;8.468;2022-08-19T14:39:23;3.20;;;2.90;;
11111;SDS011;5609;49.466;8.468;2022-08-19T14:41:50;3.38;;;3.15;;
11111;SDS011;5609;49.466;8.468;2022-08-19T14:44:17;3.33;;;3.03;;
11111;SDS011;5609;49.466;8.468;2022-08-19T14:46:44;2.92;;;2.63;;
11111;SDS011;5609;49.466;8.468;2022-08-19T14:49:11;3.13;;;2.70;;
11111;SDS011;5609;49.466;8.468;2022-08-19T14:51:39;3.28;;;2.97;;
11111;SDS011;5609;49.466;8.468;2022-08-19T14:54:06;3.05;;;2.75;;
11111;SDS011;5609;49.466;8.468;2022-08-19T14:56:33;3.30;;;2.80;;
11111;SDS011;5609;49.466;8.468;2022-08-19T14:59:00;3.65;;;2.70;;